This is the latest recevied weather packets stored in our database for station/object KEOD. If no packets are shown the sender has not sent any weather packets the latest 1 day(s).
| Time | Temp. | Humidity | Pressure | Rain* | Wind** | Luminosity | Snow |
|---|---|---|---|---|---|---|---|
| 1836274577 | 20° C | 93% | 1018.3 hPa | - | 0 m/s | - | - |
| 1836274429 | 20° C | 93% | 1018.3 hPa | - | 0 m/s | - | - |
| 1836273977 | 20° C | 93% | 1018.3 hPa | - | 0 m/s | - | - |
| 1778048608 | 12.78° C | 100% | 1008.5 hPa | - | 5.36 m/s, 350° | - | - |
| 1778048007 | 15° C | 93% | 1008.5 hPa | - | 4.02 m/s, 330° | - | - |
| 1778047412 | 13.89° C | 93% | 1008.1 hPa | - | 4.02 m/s, 330° | - | - |
| 1778046809 | 17.78° C | 93% | 1008.1 hPa | - | 4.02 m/s, 320° | - | - |
| 1778046213 | 17.78° C | 93% | 1008.1 hPa | - | 4.02 m/s, 320° | - | - |
| 1778045606 | 17.78° C | 93% | 1008.1 hPa | - | 3.58 m/s, 280° | - | - |
| 1778045008 | 18.89° C | 88% | 1007.1 hPa | - | 4.47 m/s, 250° | - | - |
| 1778044408 | 18.89° C | 88% | 1006.4 hPa | - | 5.36 m/s, 200° | - | - |
| 1778043810 | 18.89° C | 88% | 1006.4 hPa | - | 5.36 m/s, 200° | - | - |
| 1778043207 | 18.89° C | 82% | 1007.1 hPa | - | 4.02 m/s, 190° | - | - |
| 1778042610 | 18.89° C | 82% | 1007.1 hPa | - | 4.02 m/s, 190° | - | - |
| 1778042009 | 18.89° C | 82% | 1007.1 hPa | - | 4.02 m/s, 190° | - | - |
| 1778041409 | 18.89° C | 82% | 1007.1 hPa | - | 4.02 m/s, 190° | - | - |
| 1778040811 | 18.89° C | 82% | 1007.1 hPa | - | 4.02 m/s, 190° | - | - |
| 1778040329 | 18.89° C | 82% | 1007.1 hPa | - | 4.02 m/s, 190° | - | - |
| 1778039606 | 17.78° C | 88% | 1007.8 hPa | - | 4.47 m/s, 190° | - | - |
| 1778039014 | 17.78° C | 88% | 1007.8 hPa | - | 4.47 m/s, 190° | - | - |
| 1778038413 | 17.78° C | 88% | 1007.8 hPa | - | 4.47 m/s, 190° | - | - |
| 1778037811 | 17.78° C | 88% | 1007.8 hPa | - | 4.47 m/s, 190° | - | - |
| 1778037208 | 17.78° C | 88% | 1007.8 hPa | - | 4.47 m/s, 190° | - | - |
| 1778036606 | 17.78° C | 88% | 1007.8 hPa | - | 4.47 m/s, 190° | - | - |
| 1778036007 | 17.78° C | 88% | 1007.8 hPa | - | 4.02 m/s, 190° | - | - |
* Rain since midnight (hover to see other rain measurements)
** Current wind speed in m/s (hover to see current wind gust speed)